Time;durP1;ratioP1;P1;durP2;ratioP2;P2;SDS_P1;SDS_P2;PMS_P1;PMS_P2;Temp;Humidity;BMP_temperature;BMP_pressure;BME280_temperature;BME280_humidity;BME280_pressure;Samples;Min_cycle;Max_cycle;Signal;HPM_P1;HPM_P2
2023/04/04 00:01:41;;;;;;;1.98;1.80;;;8.70;71.90;;;;;;5056064;28;20102;-87
2023/04/04 00:04:09;;;;;;;1.83;1.60;;;8.60;71.90;;;;;;5072903;28;20027;-88
2023/04/04 00:06:36;;;;;;;2.70;2.03;;;8.60;71.90;;;;;;5074225;28;20032;-88
2023/04/04 00:09:05;;;;;;;2.75;1.88;;;8.60;71.90;;;;;;5063205;28;20640;-88
2023/04/04 00:11:36;;;;;;;3.60;2.20;;;8.50;71.90;;;;;;5062025;28;20039;-90
2023/04/04 00:14:02;;;;;;;3.97;2.25;;;8.50;72.00;;;;;;5077208;28;20021;-88
2023/04/04 00:16:31;;;;;;;2.70;2.10;;;8.50;72.00;;;;;;5072192;28;20146;-88
2023/04/04 00:18:57;;;;;;;3.58;2.00;;;8.50;72.00;;;;;;5054338;28;20119;-87
2023/04/04 00:21:24;;;;;;;2.95;1.90;;;8.50;72.00;;;;;;5046574;28;20073;-90
2023/04/04 00:23:53;;;;;;;2.35;2.00;;;8.40;72.00;;;;;;5068670;28;20055;-88
2023/04/04 00:26:26;;;;;;;3.75;2.05;;;8.40;72.00;;;;;;5053678;28;20037;-87
2023/04/04 00:28:53;;;;;;;3.03;2.00;;;8.40;72.00;;;;;;5047746;28;20043;-87
2023/04/04 00:31:21;;;;;;;2.55;1.98;;;8.40;72.10;;;;;;5052022;28;20099;-88
2023/04/04 00:33:47;;;;;;;2.58;2.10;;;8.30;72.70;;;;;;5064453;28;20473;-89
2023/04/04 00:36:13;;;;;;;2.65;2.03;;;8.30;72.10;;;;;;5049989;28;20054;-87
2023/04/04 00:38:41;;;;;;;2.20;1.90;;;8.30;72.10;;;;;;5051832;28;20037;-87
2023/04/04 00:41:13;;;;;;;2.72;2.00;;;8.30;72.10;;;;;;5070829;28;20107;-88
2023/04/04 00:43:39;;;;;;;3.40;2.20;;;8.20;72.00;;;;;;5051673;28;20124;-87
2023/04/04 00:46:09;;;;;;;2.55;1.90;;;8.20;72.00;;;;;;5048806;28;20033;-87
2023/04/04 00:48:39;;;;;;;2.03;1.85;;;8.20;72.00;;;;;;5050790;28;20178;-86
2023/04/04 00:51:05;;;;;;;3.03;2.20;;;8.20;72.10;;;;;;5042718;28;20037;-87
2023/04/04 00:53:33;;;;;;;2.10;1.90;;;8.20;72.10;;;;;;5054420;28;20395;-87
2023/04/04 00:56:10;;;;;;;3.25;2.53;;;8.10;72.10;;;;;;5051884;28;20098;-86
2023/04/04 00:58:37;;;;;;;2.22;1.90;;;8.10;72.10;;;;;;5051945;28;20027;-87
2023/04/04 01:01:03;;;;;;;2.90;2.15;;;8.10;72.10;;;;;;5048600;28;20056;-87
2023/04/04 01:03:34;;;;;;;2.53;2.10;;;8.10;72.20;;;;;;5070432;28;20377;-87
2023/04/04 01:06:03;;;;;;;4.35;2.03;;;8.10;72.20;;;;;;5054323;28;20431;-87
2023/04/04 01:08:35;;;;;;;2.75;2.10;;;8.00;72.20;;;;;;5037593;28;20614;-89
2023/04/04 01:11:04;;;;;;;2.72;2.17;;;8.00;72.20;;;;;;5054591;28;20119;-86
2023/04/04 01:13:43;;;;;;;2.03;1.83;;;8.00;72.30;;;;;;5065532;28;20034;-87
2023/04/04 01:16:20;;;;;;;2.75;2.22;;;8.00;72.20;;;;;;5052159;28;20040;-88
2023/04/04 01:18:52;;;;;;;2.67;2.05;;;7.90;72.20;;;;;;5036165;28;20032;-88
2023/04/04 01:21:26;;;;;;;2.70;2.05;;;7.90;72.20;;;;;;5068769;28;20107;-88
2023/04/04 01:24:07;;;;;;;2.30;2.00;;;7.90;72.30;;;;;;5053256;28;20078;-90
2023/04/04 01:26:53;;;;;;;2.47;1.90;;;7.90;72.30;;;;;;5069786;28;20119;-87
2023/04/04 01:29:19;;;;;;;3.42;2.28;;;7.80;72.20;;;;;;5062863;28;20649;-87
2023/04/04 01:32:02;;;;;;;3.05;2.00;;;7.80;72.30;;;;;;5053548;28;20072;-87
2023/04/04 01:34:51;;;;;;;2.67;2.10;;;7.70;72.30;;;;;;5079085;28;20478;-88
2023/04/04 01:37:43;;;;;;;3.00;2.10;;;7.80;72.40;;;;;;5057854;28;20045;-87
2023/04/04 01:40:28;;;;;;;2.60;2.28;;;7.70;72.40;;;;;;5065633;28;20024;-87
2023/04/04 01:42:57;;;;;;;2.90;2.50;;;7.70;72.40;;;;;;5054439;28;20029;-87
2023/04/04 01:45:28;;;;;;;3.08;2.10;;;7.70;72.40;;;;;;5047284;28;20020;-86
2023/04/04 01:47:57;;;;;;;3.15;2.42;;;7.60;72.40;;;;;;5054851;28;20033;-87
2023/04/04 01:50:26;;;;;;;2.95;2.20;;;7.60;72.40;;;;;;5070885;28;20025;-87
2023/04/04 01:52:54;;;;;;;3.65;2.55;;;7.60;72.40;;;;;;5054530;28;20016;-89
2023/04/04 01:55:29;;;;;;;3.15;2.47;;;7.60;72.40;;;;;;5047579;28;20032;-87
2023/04/04 01:58:00;;;;;;;3.58;2.35;;;7.50;72.40;;;;;;5044984;28;20074;-88
2023/04/04 02:00:29;;;;;;;3.20;2.50;;;7.50;73.00;;;;;;5057018;28;20036;-87
2023/04/04 02:03:01;;;;;;;3.38;2.50;;;7.50;72.40;;;;;;5075245;28;20028;-87
2023/04/04 02:05:32;;;;;;;2.83;2.20;;;7.50;72.40;;;;;;5058261;28;20090;-87
2023/04/04 02:08:01;;;;;;;3.45;2.65;;;7.50;72.50;;;;;;5053054;28;20046;-87
2023/04/04 02:10:36;;;;;;;3.40;2.60;;;7.40;72.40;;;;;;5072637;28;20081;-89
2023/04/04 02:13:08;;;;;;;4.15;2.63;;;7.40;72.40;;;;;;5053519;28;20025;-88
2023/04/04 02:15:39;;;;;;;2.92;2.30;;;7.40;72.40;;;;;;5059865;28;20421;-87
2023/04/04 02:18:05;;;;;;;2.90;2.20;;;7.40;72.50;;;;;;5073717;28;20461;-86
2023/04/04 02:20:31;;;;;;;4.22;2.40;;;7.40;72.40;;;;;;5056736;28;20112;-91
2023/04/04 02:22:59;;;;;;;4.03;3.03;;;7.30;72.40;;;;;;5056851;28;20025;-88
2023/04/04 02:25:28;;;;;;;3.38;2.60;;;7.30;72.40;;;;;;5058699;28;20033;-89
2023/04/04 02:27:56;;;;;;;4.60;2.70;;;7.30;72.50;;;;;;5072570;28;20041;-87
2023/04/04 02:30:25;;;;;;;4.53;2.70;;;7.30;72.50;;;;;;5057063;28;20287;-87
2023/04/04 02:32:51;;;;;;;3.65;2.58;;;7.20;72.40;;;;;;5056334;28;20415;-89
2023/04/04 02:35:19;;;;;;;2.65;2.40;;;7.20;72.50;;;;;;5043092;28;20028;-87
2023/04/04 02:37:48;;;;;;;2.60;2.22;;;7.20;72.50;;;;;;5056948;28;20435;-87
2023/04/04 02:40:29;;;;;;;3.13;2.42;;;7.20;72.50;;;;;;5054702;28;20033;-89
2023/04/04 02:42:55;;;;;;;3.42;2.58;;;7.20;72.60;;;;;;5073501;28;20031;-89
2023/04/04 02:45:33;;;;;;;2.92;2.20;;;7.10;73.10;;;;;;5059306;28;20024;-87
2023/04/04 02:48:11;;;;;;;3.33;2.42;;;7.10;72.50;;;;;;5066495;28;20083;-89
2023/04/04 02:50:44;;;;;;;3.80;2.40;;;7.10;72.60;;;;;;5046537;28;20094;-89
2023/04/04 02:53:12;;;;;;;3.00;2.40;;;7.00;72.50;;;;;;5055288;28;20024;-90
2023/04/04 02:55:47;;;;;;;3.90;2.70;;;7.00;72.50;;;;;;5054104;28;20025;-87
2023/04/04 02:58:17;;;;;;;3.35;2.70;;;7.00;72.60;;;;;;5066648;28;20033;-87
2023/04/04 03:00:47;;;;;;;3.33;2.38;;;7.00;72.60;;;;;;5059107;28;20362;-86
2023/04/04 03:03:16;;;;;;;3.28;2.50;;;7.00;72.50;;;;;;5055665;28;21623;-86
2023/04/04 03:05:50;;;;;;;4.25;2.70;;;6.90;73.10;;;;;;5072988;28;20080;-88
2023/04/04 03:08:27;;;;;;;4.18;2.50;;;6.90;73.10;;;;;;5072917;28;20123;-87
2023/04/04 03:10:55;;;;;;;3.08;2.13;;;6.90;72.60;;;;;;5040275;28;20029;-87
2023/04/04 03:13:24;;;;;;;3.13;2.28;;;6.90;73.20;;;;;;5056392;28;20334;-87
2023/04/04 03:16:02;;;;;;;4.75;2.90;;;6.80;72.60;;;;;;5056782;28;20035;-86
2023/04/04 03:18:33;;;;;;;4.40;2.92;;;6.90;72.60;;;;;;5067849;28;20078;-87
2023/04/04 03:21:01;;;;;;;4.07;2.80;;;6.80;72.60;;;;;;5052903;28;20028;-87
2023/04/04 03:23:27;;;;;;;3.60;2.53;;;6.80;72.60;;;;;;5038257;28;20042;-89
2023/04/04 03:25:54;;;;;;;2.97;2.58;;;6.80;72.60;;;;;;5055088;28;20469;-87
2023/04/04 03:28:28;;;;;;;3.75;2.42;;;6.80;72.70;;;;;;5074757;28;20576;-87
2023/04/04 03:30:53;;;;;;;2.72;2.20;;;6.70;72.60;;;;;;5069966;28;20017;-87
2023/04/04 03:33:22;;;;;;;3.55;2.78;;;6.70;72.60;;;;;;5055835;28;20025;-86
2023/04/04 03:35:48;;;;;;;3.55;2.60;;;6.70;72.60;;;;;;5055295;28;20043;-87
2023/04/04 03:38:17;;;;;;;3.65;2.50;;;6.70;72.60;;;;;;5070800;28;20025;-86
2023/04/04 03:40:47;;;;;;;4.40;2.60;;;6.60;72.60;;;;;;5033685;28;20021;-87
2023/04/04 03:43:19;;;;;;;2.95;2.45;;;6.60;72.60;;;;;;5033527;28;20119;-89
2023/04/04 03:45:50;;;;;;;2.55;2.28;;;6.60;72.60;;;;;;5039495;28;20471;-88
2023/04/04 03:48:21;;;;;;;4.18;2.80;;;6.60;72.70;;;;;;5056118;28;20074;-88
2023/04/04 03:50:52;;;;;;;3.13;2.42;;;6.60;72.70;;;;;;5067811;28;20028;-86
2023/04/04 03:53:24;;;;;;;3.13;2.47;;;6.50;72.60;;;;;;5070697;28;20016;-87
2023/04/04 03:55:51;;;;;;;3.60;2.58;;;6.50;72.70;;;;;;5039649;28;20096;-86
2023/04/04 03:58:17;;;;;;;4.22;3.03;;;6.50;72.70;;;;;;5055521;28;20098;-86
2023/04/04 04:00:43;;;;;;;3.38;2.40;;;6.50;72.70;;;;;;5056201;28;20024;-87
2023/04/04 04:03:09;;;;;;;3.30;2.50;;;6.40;72.70;;;;;;5052925;28;20469;-86
2023/04/04 04:05:47;;;;;;;3.38;2.63;;;6.40;72.70;;;;;;5061002;28;20445;-87
2023/04/04 04:08:13;;;;;;;3.92;2.75;;;6.40;72.70;;;;;;5055986;28;20131;-86
2023/04/04 04:10:41;;;;;;;4.50;2.88;;;6.40;72.70;;;;;;5072517;28;20020;-86
2023/04/04 04:13:07;;;;;;;3.33;2.70;;;6.40;72.70;;;;;;5055023;28;20495;-86
2023/04/04 04:15:36;;;;;;;3.05;2.45;;;6.30;72.70;;;;;;5054236;28;20032;-87
2023/04/04 04:18:07;;;;;;;3.42;2.63;;;6.30;72.70;;;;;;5053064;28;20393;-86
2023/04/04 04:20:33;;;;;;;3.33;2.80;;;6.30;72.70;;;;;;5053081;28;20036;-86
2023/04/04 04:23:02;;;;;;;3.85;2.83;;;6.30;72.70;;;;;;5071807;28;20032;-86
2023/04/04 04:25:31;;;;;;;3.60;2.55;;;6.30;72.70;;;;;;5041011;28;20474;-87
2023/04/04 04:28:12;;;;;;;3.45;2.45;;;6.20;72.70;;;;;;5048983;28;20082;-88
2023/04/04 04:30:40;;;;;;;4.47;2.92;;;6.20;72.70;;;;;;5051259;28;20028;-90
2023/04/04 04:33:09;;;;;;;3.47;2.70;;;6.20;72.70;;;;;;5054971;28;20056;-89
2023/04/04 04:35:44;;;;;;;3.78;2.60;;;6.20;72.70;;;;;;5067068;28;20029;-88
2023/04/04 04:38:10;;;;;;;3.92;2.83;;;6.20;72.80;;;;;;5070027;28;20020;-87
2023/04/04 04:40:43;;;;;;;3.28;2.90;;;6.20;72.80;;;;;;5051564;28;20032;-89
2023/04/04 04:43:16;;;;;;;4.50;2.80;;;6.10;72.70;;;;;;5054090;28;20024;-85
2023/04/04 04:45:42;;;;;;;3.55;2.78;;;6.10;72.80;;;;;;5050680;28;20039;-87
2023/04/04 04:48:09;;;;;;;3.92;2.78;;;6.10;72.80;;;;;;5048046;28;20123;-86
2023/04/04 04:50:46;;;;;;;3.92;2.90;;;6.10;72.80;;;;;;5054266;28;20116;-86
2023/04/04 04:53:14;;;;;;;2.92;2.35;;;6.00;72.70;;;;;;5070124;28;20025;-85
2023/04/04 04:55:44;;;;;;;3.03;2.40;;;6.00;72.70;;;;;;5049368;28;20043;-86
2023/04/04 04:58:15;;;;;;;3.45;2.80;;;6.00;72.80;;;;;;5053953;28;20059;-88
2023/04/04 05:00:45;;;;;;;3.85;2.67;;;6.00;72.80;;;;;;5048064;28;20036;-88
2023/04/04 05:03:13;;;;;;;3.67;2.83;;;5.90;72.70;;;;;;5052072;28;20029;-86
2023/04/04 05:05:47;;;;;;;3.25;2.47;;;5.90;72.70;;;;;;5050419;28;20036;-86
2023/04/04 05:08:14;;;;;;;3.60;2.60;;;5.90;72.80;;;;;;5051248;28;20113;-87
2023/04/04 05:11:16;;;;;;;3.72;2.78;;;5.90;72.80;;;;;;5050130;28;20064;-86
2023/04/04 05:13:42;;;;;;;3.38;2.65;;;5.80;72.80;;;;;;5035371;28;20442;-88
2023/04/04 05:16:07;;;;;;;3.70;2.70;;;5.80;72.80;;;;;;5044305;28;20094;-90
2023/04/04 05:18:35;;;;;;;3.90;2.70;;;5.80;72.80;;;;;;5063381;28;20035;-86
2023/04/04 05:21:05;;;;;;;4.32;2.95;;;5.80;72.80;;;;;;5051602;28;20037;-86
2023/04/04 05:23:35;;;;;;;3.50;2.78;;;5.80;72.80;;;;;;5036474;28;20393;-86
2023/04/04 05:26:02;;;;;;;4.63;3.20;;;5.80;72.80;;;;;;5053787;28;20029;-86
2023/04/04 05:28:32;;;;;;;4.38;3.13;;;5.70;72.80;;;;;;5063196;28;20035;-87
2023/04/04 05:31:03;;;;;;;4.05;2.80;;;5.70;72.80;;;;;;5036672;28;20035;-87
2023/04/04 05:33:31;;;;;;;3.45;2.70;;;5.70;72.80;;;;;;5037487;28;20481;-88
2023/04/04 05:36:08;;;;;;;4.07;2.67;;;5.70;72.90;;;;;;5055534;28;20025;-86
2023/04/04 05:38:42;;;;;;;4.35;2.80;;;5.70;72.80;;;;;;5049300;28;20299;-85
2023/04/04 05:41:08;;;;;;;4.28;2.78;;;5.60;72.80;;;;;;5043415;28;20079;-84
2023/04/04 05:43:35;;;;;;;3.92;2.78;;;5.60;72.80;;;;;;5044427;28;20032;-85
2023/04/04 05:46:06;;;;;;;4.13;2.97;;;5.60;72.80;;;;;;5051308;28;20025;-87
2023/04/04 05:48:40;;;;;;;4.23;2.97;;;5.60;73.40;;;;;;5070175;28;20033;-86
2023/04/04 05:51:06;;;;;;;4.78;3.00;;;5.50;72.80;;;;;;5062662;28;20344;-86
2023/04/04 05:53:40;;;;;;;3.13;2.45;;;5.50;72.80;;;;;;5052334;28;20112;-87
2023/04/04 05:56:06;;;;;;;3.42;2.40;;;5.50;72.80;;;;;;5042622;28;20119;-87
2023/04/04 05:58:33;;;;;;;3.60;3.00;;;5.50;72.80;;;;;;5059520;28;20021;-87
2023/04/04 06:01:05;;;;;;;3.85;2.67;;;5.50;72.80;;;;;;5050240;28;20048;-87
2023/04/04 06:03:33;;;;;;;4.35;2.85;;;5.50;72.80;;;;;;5064750;28;20515;-87
2023/04/04 06:06:03;;;;;;;3.22;2.58;;;5.50;72.80;;;;;;5050454;28;20115;-87
2023/04/04 06:08:32;;;;;;;3.55;2.70;;;5.50;72.80;;;;;;5062733;28;20025;-87
2023/04/04 06:10:57;;;;;;;4.20;2.80;;;5.50;72.90;;;;;;5053418;28;20023;-88
2023/04/04 06:13:24;;;;;;;4.03;2.97;;;5.40;72.80;;;;;;5054021;28;20120;-85
2023/04/04 06:15:55;;;;;;;4.10;2.85;;;5.40;72.80;;;;;;5058845;28;20029;-86
2023/04/04 06:18:21;;;;;;;4.90;3.42;;;5.40;72.80;;;;;;5060180;28;20501;-89
2023/04/04 06:20:47;;;;;;;4.00;2.97;;;5.40;72.80;;;;;;5047414;28;20060;-90
2023/04/04 06:23:14;;;;;;;3.28;2.47;;;5.40;72.80;;;;;;5053553;28;20024;-88
2023/04/04 06:25:46;;;;;;;4.35;2.97;;;5.40;72.80;;;;;;5052034;28;20055;-89
2023/04/04 06:28:15;;;;;;;3.72;2.78;;;5.40;72.90;;;;;;5050958;28;20043;-88
2023/04/04 06:30:43;;;;;;;4.25;2.85;;;5.40;72.90;;;;;;5049977;28;20105;-89
2023/04/04 06:33:11;;;;;;;3.03;2.70;;;5.40;72.90;;;;;;5061583;28;20062;-88
2023/04/04 06:35:43;;;;;;;4.32;2.60;;;5.40;72.90;;;;;;5054511;28;20481;-88
2023/04/04 06:38:09;;;;;;;2.90;2.50;;;5.30;72.80;;;;;;5053214;28;20066;-89
2023/04/04 06:40:35;;;;;;;3.90;2.75;;;5.30;72.80;;;;;;5046693;28;20017;-88
2023/04/04 06:43:01;;;;;;;3.88;2.80;;;5.30;72.80;;;;;;5048010;28;20032;-87
2023/04/04 06:45:34;;;;;;;4.32;3.10;;;5.30;72.80;;;;;;5050741;28;20086;-89
2023/04/04 06:48:01;;;;;;;3.55;2.92;;;5.30;72.90;;;;;;5047985;28;20037;-88
2023/04/04 06:50:32;;;;;;;4.00;3.00;;;5.30;72.90;;;;;;5072045;28;20105;-86
2023/04/04 06:53:00;;;;;;;4.63;3.28;;;5.30;72.90;;;;;;5063454;28;20021;-89
2023/04/04 06:55:28;;;;;;;4.45;3.05;;;5.40;72.90;;;;;;5048559;28;20484;-85
2023/04/04 06:57:54;;;;;;;4.15;2.90;;;5.40;72.90;;;;;;5053273;28;20024;-87
2023/04/04 07:00:20;;;;;;;5.70;3.08;;;5.40;72.90;;;;;;5053958;28;20480;-85
2023/04/04 07:02:46;;;;;;;3.63;2.50;;;5.40;72.90;;;;;;5053505;28;20075;-85
2023/04/04 07:05:13;;;;;;;4.10;3.10;;;5.40;72.90;;;;;;5055318;28;20032;-86
2023/04/04 07:07:39;;;;;;;3.55;2.70;;;5.30;72.90;;;;;;5050039;28;20068;-87
2023/04/04 07:10:05;;;;;;;3.85;3.20;;;5.30;72.90;;;;;;5067012;28;20052;-88
2023/04/04 07:12:32;;;;;;;3.70;2.83;;;5.40;72.90;;;;;;5073211;28;20020;-84
2023/04/04 07:14:57;;;;;;;4.07;2.90;;;5.40;72.90;;;;;;5048085;28;20033;-86
2023/04/04 07:17:24;;;;;;;3.33;2.58;;;5.40;72.90;;;;;;5069721;28;20085;-85
2023/04/04 07:19:50;;;;;;;3.60;2.50;;;5.40;72.90;;;;;;5053546;28;20032;-87
2023/04/04 07:22:15;;;;;;;3.38;2.70;;;5.40;72.90;;;;;;5049398;28;20071;-85
2023/04/04 07:24:41;;;;;;;3.25;2.67;;;5.40;72.90;;;;;;5030978;28;20021;-84
2023/04/04 07:27:07;;;;;;;4.32;2.83;;;5.40;72.90;;;;;;5055164;28;20045;-87
2023/04/04 07:29:33;;;;;;;3.47;2.60;;;5.40;72.90;;;;;;5068384;28;20062;-84
2023/04/04 07:31:59;;;;;;;5.40;2.95;;;5.40;72.90;;;;;;5056204;28;20492;-84
2023/04/04 07:34:25;;;;;;;3.00;2.38;;;5.40;72.90;;;;;;5067803;28;20123;-84
2023/04/04 07:36:52;;;;;;;3.00;2.55;;;5.50;73.00;;;;;;5055228;28;20077;-86
2023/04/04 07:39:18;;;;;;;3.35;2.60;;;5.40;72.90;;;;;;5016400;28;20115;-84
2023/04/04 07:41:44;;;;;;;3.80;2.90;;;5.50;72.90;;;;;;5054247;28;20190;-85
2023/04/04 07:44:10;;;;;;;3.00;2.40;;;5.50;72.90;;;;;;5054550;28;20366;-85
2023/04/04 07:46:37;;;;;;;2.72;2.38;;;5.50;72.90;;;;;;5038480;28;20037;-84
2023/04/04 07:49:02;;;;;;;2.85;2.55;;;5.50;72.90;;;;;;5055502;28;20522;-85
2023/04/04 07:51:29;;;;;;;3.28;2.63;;;5.50;72.90;;;;;;5029891;28;20033;-85
2023/04/04 07:53:56;;;;;;;3.10;2.72;;;5.50;72.90;;;;;;5053643;28;20028;-85
2023/04/04 07:56:22;;;;;;;3.22;2.50;;;5.50;72.90;;;;;;5053698;28;20060;-85
2023/04/04 07:58:47;;;;;;;3.15;2.60;;;5.60;73.00;;;;;;5054878;28;20082;-84
2023/04/04 08:01:13;;;;;;;3.60;2.63;;;5.60;72.90;;;;;;5057663;28;20029;-83
2023/04/04 08:03:39;;;;;;;3.90;2.70;;;5.60;72.90;;;;;;5047802;28;20020;-84
2023/04/04 08:06:05;;;;;;;3.85;2.72;;;5.60;72.90;;;;;;5068289;28;20056;-84
2023/04/04 08:08:31;;;;;;;2.53;2.30;;;5.60;72.90;;;;;;5054373;28;20047;-84
2023/04/04 08:10:57;;;;;;;3.50;2.70;;;5.70;73.00;;;;;;5068839;28;20024;-85
2023/04/04 08:13:22;;;;;;;3.00;2.50;;;5.70;73.00;;;;;;5050845;28;20039;-88
2023/04/04 08:15:48;;;;;;;3.20;2.50;;;5.70;72.90;;;;;;5034197;28;20036;-85
2023/04/04 08:18:14;;;;;;;3.63;2.67;;;5.70;72.90;;;;;;5052889;28;20048;-85
2023/04/04 08:20:40;;;;;;;4.03;2.78;;;5.70;72.90;;;;;;5064809;28;20595;-85
2023/04/04 08:23:06;;;;;;;3.10;2.40;;;5.70;73.50;;;;;;5071550;28;20047;-84
2023/04/04 08:25:33;;;;;;;3.03;2.33;;;5.80;73.00;;;;;;5054784;28;20020;-85
2023/04/04 08:27:59;;;;;;;3.30;2.60;;;5.80;73.00;;;;;;5051657;28;20049;-83
2023/04/04 08:30:25;;;;;;;3.42;2.83;;;5.80;72.90;;;;;;5054706;28;20033;-82
2023/04/04 08:32:51;;;;;;;3.28;2.58;;;5.90;72.90;;;;;;5051604;28;20028;-85
2023/04/04 08:35:17;;;;;;;3.50;2.83;;;5.80;72.90;;;;;;5037432;28;20036;-83
2023/04/04 08:37:44;;;;;;;4.40;2.65;;;5.90;72.90;;;;;;5050772;28;20032;-83
2023/04/04 08:40:11;;;;;;;4.05;2.78;;;5.90;72.90;;;;;;5062195;28;20024;-82
2023/04/04 08:42:39;;;;;;;3.20;2.60;;;5.90;73.50;;;;;;5037151;28;20021;-86
2023/04/04 08:45:08;;;;;;;3.38;2.70;;;5.90;72.80;;;;;;5070364;28;20059;-84
2023/04/04 08:47:36;;;;;;;3.13;2.25;;;6.00;72.80;;;;;;5059860;28;20098;-84
2023/04/04 08:50:09;;;;;;;3.38;2.58;;;6.00;72.80;;;;;;5049107;28;20035;-83
2023/04/04 08:52:36;;;;;;;2.55;2.33;;;6.10;72.80;;;;;;5049829;28;20025;-84
2023/04/04 08:55:06;;;;;;;2.55;2.28;;;6.10;72.70;;;;;;5056789;28;20020;-82
2023/04/04 08:57:32;;;;;;;3.28;2.30;;;6.10;72.70;;;;;;5062213;28;20060;-83
2023/04/04 08:59:58;;;;;;;3.22;2.47;;;6.20;72.70;;;;;;5038931;28;20024;-85
2023/04/04 09:02:47;;;;;;;4.53;2.67;;;6.20;72.60;;;;;;5052783;28;20067;-84
2023/04/04 09:05:14;;;;;;;3.85;2.72;;;6.30;72.60;;;;;;5050469;28;20056;-85
2023/04/04 09:07:41;;;;;;;3.30;2.70;;;6.40;72.50;;;;;;5049707;28;20033;-85
2023/04/04 09:10:10;;;;;;;4.28;2.30;;;6.40;72.50;;;;;;5062333;28;20478;-85
2023/04/04 09:12:42;;;;;;;3.15;2.40;;;6.50;72.50;;;;;;5046762;28;20037;-85
2023/04/04 09:15:09;;;;;;;3.20;2.50;;;6.60;72.40;;;;;;5064640;28;20024;-86
2023/04/04 09:17:36;;;;;;;3.05;2.67;;;6.60;72.30;;;;;;5070221;28;20111;-85
2023/04/04 09:20:03;;;;;;;2.60;2.35;;;6.70;72.30;;;;;;5050815;28;20082;-86
2023/04/04 09:22:29;;;;;;;2.92;2.35;;;6.80;72.20;;;;;;5067129;28;20033;-85
2023/04/04 09:24:55;;;;;;;2.72;2.38;;;6.80;72.10;;;;;;5066884;28;20021;-85
2023/04/04 09:27:21;;;;;;;3.05;2.60;;;6.90;72.10;;;;;;5047663;28;20048;-86
2023/04/04 09:29:48;;;;;;;3.20;2.50;;;7.00;72.10;;;;;;5049806;28;20090;-85
2023/04/04 09:32:15;;;;;;;2.90;2.42;;;7.00;71.90;;;;;;5050779;28;20028;-85
2023/04/04 09:34:42;;;;;;;2.92;2.40;;;7.10;71.80;;;;;;5053880;28;20600;-85
2023/04/04 09:37:09;;;;;;;3.72;2.38;;;7.20;71.80;;;;;;5048946;28;20282;-85
2023/04/04 09:39:38;;;;;;;3.90;2.60;;;7.30;71.80;;;;;;5051171;28;20078;-85
2023/04/04 09:42:06;;;;;;;3.30;2.45;;;7.40;71.70;;;;;;5043077;28;20017;-85
2023/04/04 09:44:33;;;;;;;3.10;2.40;;;7.40;71.60;;;;;;5059430;28;20037;-87
2023/04/04 09:47:27;;;;;;;2.90;2.45;;;7.50;72.20;;;;;;5048254;28;20072;-88
2023/04/04 09:49:59;;;;;;;2.75;2.35;;;7.60;71.60;;;;;;5066381;28;20149;-87
2023/04/04 09:52:26;;;;;;;2.88;2.40;;;7.70;71.40;;;;;;5053329;28;20025;-86
2023/04/04 09:54:59;;;;;;;2.75;2.30;;;7.80;71.40;;;;;;5066868;28;20067;-86
2023/04/04 09:57:33;;;;;;;2.40;2.20;;;7.90;71.50;;;;;;5047456;28;20425;-89
2023/04/04 10:00:06;;;;;;;3.35;2.80;;;8.00;71.40;;;;;;5049418;28;20469;-88
2023/04/04 10:02:37;;;;;;;2.85;2.28;;;8.00;71.30;;;;;;5066847;28;20082;-87
2023/04/04 10:05:04;;;;;;;2.58;2.13;;;8.10;71.20;;;;;;5060762;28;20029;-88
2023/04/04 10:07:31;;;;;;;2.63;2.28;;;8.20;71.20;;;;;;5053785;28;20473;-95
2023/04/04 10:10:09;;;;;;;4.03;2.50;;;8.30;71.20;;;;;;5063088;28;20465;-92
2023/04/04 10:12:38;;;;;;;2.58;2.25;;;8.40;71.20;;;;;;5068987;28;20025;-93
2023/04/04 10:15:04;;;;;;;4.05;2.40;;;8.50;71.20;;;;;;5065369;28;20487;-92
2023/04/04 10:17:42;;;;;;;2.65;2.10;;;8.60;71.10;;;;;;5069975;28;20036;-93
2023/04/04 10:20:09;;;;;;;3.30;2.75;;;8.70;71.10;;;;;;5048829;28;20032;-91
2023/04/04 10:22:36;;;;;;;2.53;2.33;;;8.80;71.10;;;;;;5057518;28;20028;-92
2023/04/04 10:25:09;;;;;;;2.55;2.30;;;8.80;71.00;;;;;;5069340;28;20063;-95
2023/04/04 10:27:37;;;;;;;2.83;2.30;;;9.00;71.10;;;;;;5061592;28;20048;-95
2023/04/04 10:30:06;;;;;;;3.58;2.53;;;9.10;70.90;;;;;;5091779;28;20033;-94
2023/04/04 10:32:56;;;;;;;2.97;2.40;;;9.10;71.50;;;;;;5042302;28;20123;-91
2023/04/04 10:35:33;;;;;;;4.07;2.55;;;9.30;70.90;;;;;;5059535;28;20068;-93
2023/04/04 10:38:08;;;;;;;2.50;2.20;;;9.30;70.80;;;;;;5060798;28;20033;-96
2023/04/04 10:40:45;;;;;;;;;;;9.50;70.70;;;;;;5064359;28;20029;-95
2023/04/04 10:43:19;;;;;;;2.70;2.20;;;9.50;70.50;;;;;;5067542;28;19915;-95
2023/04/04 10:46:05;;;;;;;3.05;2.40;;;9.70;70.40;;;;;;5064936;28;20028;-95
2023/04/04 10:48:41;;;;;;;3.60;2.50;;;9.80;70.50;;;;;;5094998;28;20059;-92
2023/04/04 10:51:16;;;;;;;2.53;2.13;;;9.90;70.50;;;;;;5066274;28;20033;-91
2023/04/04 10:53:48;;;;;;;3.78;2.30;;;10.00;70.50;;;;;;5075091;28;20012;-95
2023/04/04 10:56:20;;;;;;;2.97;2.38;;;10.10;70.40;;;;;;5072373;28;20033;-93
2023/04/04 10:58:58;;;;;;;;;;;;;;;;;;;;;
2023/04/04 11:01:54;;;;;;;3.80;2.45;;;10.20;70.30;;;;;;5083682;28;20059;-95
2023/04/04 11:04:46;;;;;;;3.35;2.42;;;10.40;70.40;;;;;;5058488;28;20538;-93
2023/04/04 11:07:15;;;;;;;3.47;2.22;;;10.50;70.20;;;;;;5063778;28;20055;-93
2023/04/04 11:10:02;;;;;;;3.22;2.40;;;10.50;70.10;;;;;;5071002;28;20127;-94
2023/04/04 11:12:37;;;;;;;3.75;2.33;;;10.70;70.20;;;;;;5075793;28;20029;-89
2023/04/04 11:15:09;;;;;;;3.63;2.65;;;10.80;70.10;;;;;;5080770;28;20028;-93
2023/04/04 11:17:57;;;;;;;2.67;2.40;;;10.90;70.10;;;;;;5052110;28;20074;-95
2023/04/04 11:20:37;;;;;;;2.70;2.30;;;11.00;70.10;;;;;;5074636;28;20032;-94
2023/04/04 11:23:26;;;;;;;2.67;2.25;;;11.10;70.00;;;;;;5071931;28;20331;-91
2023/04/04 11:26:14;;;;;;;2.28;2.03;;;11.20;70.00;;;;;;5070595;28;20012;-91
2023/04/04 11:28:57;;;;;;;2.53;2.15;;;11.30;70.00;;;;;;5067779;28;20650;-92
2023/04/04 11:31:40;;;;;;;3.22;2.42;;;11.30;69.90;;;;;;5082658;28;20087;-96
2023/04/04 11:34:09;;;;;;;3.65;2.50;;;11.40;69.90;;;;;;5072211;28;20060;-91
2023/04/04 11:36:39;;;;;;;3.15;2.40;;;11.50;69.90;;;;;;5080473;28;20028;-95
2023/04/04 11:39:21;;;;;;;3.47;2.50;;;11.60;69.90;;;;;;5080144;28;20050;-94
2023/04/04 11:42:03;;;;;;;3.20;2.50;;;11.60;69.90;;;;;;5051890;28;20079;-86
2023/04/04 11:44:38;;;;;;;3.95;2.63;;;11.70;69.90;;;;;;5085982;28;20028;-91
2023/04/04 11:47:08;;;;;;;3.33;2.60;;;11.80;69.90;;;;;;5072079;28;20269;-88
2023/04/04 11:49:39;;;;;;;2.42;2.20;;;11.90;69.90;;;;;;5057225;28;20116;-91
2023/04/04 11:52:16;;;;;;;4.10;2.72;;;11.90;69.90;;;;;;5067045;28;20033;-95
2023/04/04 11:55:13;;;;;;;3.45;2.50;;;12.00;70.00;;;;;;5060242;28;20029;-92
2023/04/04 11:57:50;;;;;;;3.40;2.47;;;12.10;70.10;;;;;;5070612;28;20032;-94
2023/04/04 12:00:40;;;;;;;4.18;2.83;;;12.10;70.10;;;;;;5075566;28;20035;-94
2023/04/04 12:03:09;;;;;;;3.22;2.78;;;12.20;70.20;;;;;;5074056;28;20028;-96
2023/04/04 12:05:37;;;;;;;2.60;2.25;;;12.20;70.10;;;;;;5063797;28;20540;-95
2023/04/04 12:08:05;;;;;;;3.65;2.60;;;12.30;70.30;;;;;;5075599;28;20066;-94
2023/04/04 12:10:34;;;;;;;3.75;2.58;;;12.30;70.30;;;;;;5078329;28;20021;-92
2023/04/04 12:13:01;;;;;;;3.63;2.30;;;12.40;70.50;;;;;;5079322;28;20039;-95
2023/04/04 12:15:37;;;;;;;3.30;2.53;;;12.40;70.40;;;;;;5045529;28;20112;-95
2023/04/04 12:18:07;;;;;;;3.45;2.42;;;12.50;70.50;;;;;;5057762;28;20020;-94
2023/04/04 12:20:36;;;;;;;4.28;2.97;;;12.50;70.60;;;;;;5056913;28;20028;-96
2023/04/04 12:23:04;;;;;;;3.72;2.33;;;12.50;70.70;;;;;;5068419;28;20024;-88
2023/04/04 12:25:32;;;;;;;3.38;2.55;;;12.60;70.70;;;;;;5042259;28;20048;-87
2023/04/04 12:28:00;;;;;;;3.67;2.58;;;12.70;70.80;;;;;;5068059;28;20053;-86
2023/04/04 12:30:27;;;;;;;3.92;2.40;;;12.70;70.90;;;;;;5071615;28;20368;-88
2023/04/04 12:32:53;;;;;;;2.50;2.05;;;12.70;70.90;;;;;;5052075;28;20110;-89
2023/04/04 12:35:21;;;;;;;2.47;2.17;;;12.70;70.90;;;;;;5046354;28;20017;-85
2023/04/04 12:38:06;;;;;;;3.17;2.28;;;12.80;71.00;;;;;;5069096;28;20032;-87
2023/04/04 12:40:36;;;;;;;3.35;2.40;;;12.80;71.10;;;;;;5083834;28;20060;-89
2023/04/04 12:43:06;;;;;;;3.20;2.22;;;12.90;71.00;;;;;;5054942;28;20052;-88
2023/04/04 12:45:36;;;;;;;4.40;2.50;;;12.90;71.10;;;;;;5052367;28;20595;-89
2023/04/04 12:48:09;;;;;;;3.65;2.38;;;13.00;71.10;;;;;;5071633;28;20029;-89
2023/04/04 12:50:54;;;;;;;3.20;2.17;;;13.00;71.10;;;;;;5066287;28;20032;-89
2023/04/04 12:53:26;;;;;;;3.40;2.22;;;13.00;71.10;;;;;;5054446;28;20035;-92
2023/04/04 12:55:54;;;;;;;3.15;2.05;;;13.10;71.10;;;;;;5056077;28;20044;-89
2023/04/04 12:58:22;;;;;;;3.72;2.20;;;13.10;71.10;;;;;;5067418;28;20027;-89
2023/04/04 13:00:51;;;;;;;4.07;2.55;;;13.10;71.00;;;;;;5054353;28;20052;-91
2023/04/04 13:03:21;;;;;;;3.35;2.40;;;13.20;71.00;;;;;;5068048;28;20476;-90
2023/04/04 13:05:53;;;;;;;3.42;2.35;;;13.30;71.00;;;;;;5061957;28;20480;-89
2023/04/04 13:08:24;;;;;;;3.63;2.42;;;13.30;70.90;;;;;;5075084;28;20028;-90
2023/04/04 13:11:07;;;;;;;5.22;2.55;;;13.30;70.90;;;;;;5053535;28;20115;-89
2023/04/04 13:13:42;;;;;;;3.40;2.38;;;13.30;70.80;;;;;;5074369;28;20044;-88
2023/04/04 13:16:10;;;;;;;2.88;2.00;;;13.40;70.80;;;;;;5059329;28;20029;-87